sensor_id;sensor_type;location;lat;lon;timestamp;pressure;altitude;pressure_sealevel;temperature;humidity
60337;BME280;46978;50.288;28.624;2022-12-11T00:00:55;97768.77;;;0.50;100.00
60337;BME280;46978;50.288;28.624;2022-12-11T00:01:57;97762.81;;;0.51;100.00
60337;BME280;46978;50.288;28.624;2022-12-11T00:02:58;97768.76;;;0.52;100.00
60337;BME280;46978;50.288;28.624;2022-12-11T00:04:00;97777.25;;;0.52;100.00
60337;BME280;46978;50.288;28.624;2022-12-11T00:05:02;97778.12;;;0.55;100.00
60337;BME280;46978;50.288;28.624;2022-12-11T00:06:06;97780.67;;;0.55;100.00
60337;BME280;46978;50.288;28.624;2022-12-11T00:07:09;97781.51;;;0.55;100.00
60337;BME280;46978;50.288;28.624;2022-12-11T00:08:11;97795.11;;;0.56;100.00
60337;BME280;46978;50.288;28.624;2022-12-11T00:09:13;97801.92;;;0.57;100.00
60337;BME280;46978;50.288;28.624;2022-12-11T00:10:15;97801.08;;;0.58;100.00
60337;BME280;46978;50.288;28.624;2022-12-11T00:11:17;97795.97;;;0.58;100.00
60337;BME280;46978;50.288;28.624;2022-12-11T00:12:19;97790.87;;;0.58;100.00
60337;BME280;46978;50.288;28.624;2022-12-11T00:13:20;97789.15;;;0.60;100.00
60337;BME280;46978;50.288;28.624;2022-12-11T00:14:22;97789.98;;;0.62;100.00
60337;BME280;46978;50.288;28.624;2022-12-11T00:15:23;97783.19;;;0.64;100.00
60337;BME280;46978;50.288;28.624;2022-12-11T00:16:25;97793.40;;;0.64;100.00
60337;BME280;46978;50.288;28.624;2022-12-11T00:17:27;97799.34;;;0.66;100.00
60337;BME280;46978;50.288;28.624;2022-12-11T00:18:29;97794.23;;;0.66;100.00
60337;BME280;46978;50.288;28.624;2022-12-11T00:19:30;97790.83;;;0.68;100.00
60337;BME280;46978;50.288;28.624;2022-12-11T00:20:32;97781.46;;;0.67;100.00
60337;BME280;46978;50.288;28.624;2022-12-11T00:21:34;97789.95;;;0.69;100.00
60337;BME280;46978;50.288;28.624;2022-12-11T00:22:35;97790.82;;;0.70;100.00
60337;BME280;46978;50.288;28.624;2022-12-11T00:23:37;97793.38;;;0.70;100.00
60337;BME280;46978;50.288;28.624;2022-12-11T00:24:39;97789.11;;;0.69;100.00
60337;BME280;46978;50.288;28.624;2022-12-11T00:25:46;97783.16;;;0.70;100.00
60337;BME280;46978;50.288;28.624;2022-12-11T00:26:48;97778.06;;;0.70;100.00
60337;BME280;46978;50.288;28.624;2022-12-11T00:27:49;97775.52;;;0.68;100.00
60337;BME280;46978;50.288;28.624;2022-12-11T00:28:53;97775.52;;;0.68;100.00
60337;BME280;46978;50.288;28.624;2022-12-11T00:29:55;97772.95;;;0.68;100.00
60337;BME280;46978;50.288;28.624;2022-12-11T00:30:57;97775.52;;;0.68;100.00
60337;BME280;46978;50.288;28.624;2022-12-11T00:31:58;97777.20;;;0.68;100.00
60337;BME280;46978;50.288;28.624;2022-12-11T00:33:00;97779.75;;;0.68;100.00
60337;BME280;46978;50.288;28.624;2022-12-11T00:34:02;97785.73;;;0.67;100.00
60337;BME280;46978;50.288;28.624;2022-12-11T00:35:04;97784.02;;;0.67;100.00
60337;BME280;46978;50.288;28.624;2022-12-11T00:36:22;97784.86;;;0.66;100.00
60337;BME280;46978;50.288;28.624;2022-12-11T00:37:24;97787.40;;;0.69;100.00
60337;BME280;46978;50.288;28.624;2022-12-11T00:38:26;97780.61;;;0.70;100.00
60337;BME280;46978;50.288;28.624;2022-12-11T00:39:27;97778.89;;;0.70;100.00
60337;BME280;46978;50.288;28.624;2022-12-11T00:40:37;97784.84;;;0.71;100.00
60337;BME280;46978;50.288;28.624;2022-12-11T00:41:38;97781.44;;;0.74;100.00
60337;BME280;46978;50.288;28.624;2022-12-11T00:42:40;97780.59;;;0.73;100.00
60337;BME280;46978;50.288;28.624;2022-12-11T00:43:42;97775.48;;;0.75;100.00
60337;BME280;46978;50.288;28.624;2022-12-11T00:44:44;97781.43;;;0.75;100.00
60337;BME280;46978;50.288;28.624;2022-12-11T00:45:46;97783.14;;;0.76;100.00
60337;BME280;46978;50.288;28.624;2022-12-11T00:46:48;97779.70;;;0.77;100.00
60337;BME280;46978;50.288;28.624;2022-12-11T00:47:50;97783.98;;;0.77;100.00
60337;BME280;46978;50.288;28.624;2022-12-11T00:48:51;97775.47;;;0.78;100.00
60337;BME280;46978;50.288;28.624;2022-12-11T00:49:53;97777.15;;;0.79;100.00
60337;BME280;46978;50.288;28.624;2022-12-11T00:50:55;97765.25;;;0.79;100.00
60337;BME280;46978;50.288;28.624;2022-12-11T00:51:57;97762.70;;;0.78;100.00
60337;BME280;46978;50.288;28.624;2022-12-11T00:52:58;97755.88;;;0.78;100.00
60337;BME280;46978;50.288;28.624;2022-12-11T00:54:00;97748.22;;;0.78;100.00
60337;BME280;46978;50.288;28.624;2022-12-11T00:55:02;97742.28;;;0.78;100.00
60337;BME280;46978;50.288;28.624;2022-12-11T00:56:12;97739.73;;;0.78;100.00
60337;BME280;46978;50.288;28.624;2022-12-11T00:57:15;97731.20;;;0.77;100.00
60337;BME280;46978;50.288;28.624;2022-12-11T00:58:16;97731.20;;;0.76;100.00
60337;BME280;46978;50.288;28.624;2022-12-11T00:59:18;97727.81;;;0.75;100.00
60337;BME280;46978;50.288;28.624;2022-12-11T01:00:20;97718.45;;;0.74;100.00
60337;BME280;46978;50.288;28.624;2022-12-11T01:01:23;97711.67;;;0.73;100.00
60337;BME280;46978;50.288;28.624;2022-12-11T01:02:25;97709.96;;;0.72;100.00
60337;BME280;46978;50.288;28.624;2022-12-11T01:03:27;97704.02;;;0.71;100.00
60337;BME280;46978;50.288;28.624;2022-12-11T01:04:28;97704.02;;;0.70;100.00
60337;BME280;46978;50.288;28.624;2022-12-11T01:05:30;97697.21;;;0.69;100.00
60337;BME280;46978;50.288;28.624;2022-12-11T01:06:33;97691.27;;;0.68;100.00
60337;BME280;46978;50.288;28.624;2022-12-11T01:07:35;97691.27;;;0.68;100.00
60337;BME280;46978;50.288;28.624;2022-12-11T01:08:36;97681.91;;;0.67;100.00
60337;BME280;46978;50.288;28.624;2022-12-11T01:09:39;97680.20;;;0.66;100.00
60337;BME280;46978;50.288;28.624;2022-12-11T01:10:41;97689.57;;;0.66;100.00
60337;BME280;46978;50.288;28.624;2022-12-11T01:11:43;97683.63;;;0.65;100.00
60337;BME280;46978;50.288;28.624;2022-12-11T01:12:44;97681.08;;;0.65;100.00
60337;BME280;46978;50.288;28.624;2022-12-11T01:13:46;97686.19;;;0.64;100.00
60337;BME280;46978;50.288;28.624;2022-12-11T01:14:48;97683.64;;;0.64;100.00
60337;BME280;46978;50.288;28.624;2022-12-11T01:15:49;97673.43;;;0.64;100.00
60337;BME280;46978;50.288;28.624;2022-12-11T01:16:51;97676.82;;;0.64;100.00
60337;BME280;46978;50.288;28.624;2022-12-11T01:17:54;97671.72;;;0.63;100.00
60337;BME280;46978;50.288;28.624;2022-12-11T01:18:56;97669.17;;;0.63;100.00
60337;BME280;46978;50.288;28.624;2022-12-11T01:19:58;97665.78;;;0.62;100.00
60337;BME280;46978;50.288;28.624;2022-12-11T01:21:08;97664.06;;;0.63;100.00
60337;BME280;46978;50.288;28.624;2022-12-11T01:22:10;97664.91;;;0.62;100.00
60337;BME280;46978;50.288;28.624;2022-12-11T01:23:12;97666.62;;;0.63;100.00
60337;BME280;46978;50.288;28.624;2022-12-11T01:24:14;97664.06;;;0.63;100.00
60337;BME280;46978;50.288;28.624;2022-12-11T01:25:16;97658.96;;;0.63;100.00
60337;BME280;46978;50.288;28.624;2022-12-11T01:26:18;97657.25;;;0.62;100.00
60337;BME280;46978;50.288;28.624;2022-12-11T01:27:20;97657.25;;;0.62;100.00
60337;BME280;46978;50.288;28.624;2022-12-11T01:28:22;97653.02;;;0.62;100.00
60337;BME280;46978;50.288;28.624;2022-12-11T01:29:24;97650.47;;;0.61;100.00
60337;BME280;46978;50.288;28.624;2022-12-11T01:30:25;97669.17;;;0.61;100.00
60337;BME280;46978;50.288;28.624;2022-12-11T01:31:28;97647.92;;;0.61;100.00
60337;BME280;46978;50.288;28.624;2022-12-11T01:32:31;97641.11;;;0.60;100.00
60337;BME280;46978;50.288;28.624;2022-12-11T01:33:32;97637.73;;;0.58;100.00
60337;BME280;46978;50.288;28.624;2022-12-11T01:34:34;97637.73;;;0.58;100.00
60337;BME280;46978;50.288;28.624;2022-12-11T01:35:37;97633.47;;;0.57;100.00
60337;BME280;46978;50.288;28.624;2022-12-11T01:36:39;97641.13;;;0.57;100.00
60337;BME280;46978;50.288;28.624;2022-12-11T01:37:41;97631.77;;;0.56;100.00
60337;BME280;46978;50.288;28.624;2022-12-11T01:38:44;97634.31;;;0.56;100.00
60337;BME280;46978;50.288;28.624;2022-12-11T01:39:46;97632.64;;;0.56;100.00
60337;BME280;46978;50.288;28.624;2022-12-11T01:40:49;97632.64;;;0.56;100.00
60337;BME280;46978;50.288;28.624;2022-12-11T01:41:56;97636.03;;;0.55;100.00
60337;BME280;46978;50.288;28.624;2022-12-11T01:42:58;97630.93;;;0.55;100.00
60337;BME280;46978;50.288;28.624;2022-12-11T01:45:39;97623.27;;;0.57;100.00
60337;BME280;46978;50.288;28.624;2022-12-11T01:46:38;97620.71;;;0.57;100.00
60337;BME280;46978;50.288;28.624;2022-12-11T01:47:40;97613.06;;;0.55;100.00
60337;BME280;46978;50.288;28.624;2022-12-11T01:48:41;97620.72;;;0.55;100.00
60337;BME280;46978;50.288;28.624;2022-12-11T01:49:43;97615.62;;;0.55;100.00
60337;BME280;46978;50.288;28.624;2022-12-11T01:50:51;97609.67;;;0.55;100.00
60337;BME280;46978;50.288;28.624;2022-12-11T01:52:15;97604.58;;;0.55;100.00
60337;BME280;46978;50.288;28.624;2022-12-11T01:53:20;97605.41;;;0.55;100.00
60337;BME280;46978;50.288;28.624;2022-12-11T01:54:23;97591.81;;;0.55;100.00
60337;BME280;46978;50.288;28.624;2022-12-11T01:55:26;97597.77;;;0.53;100.00
60337;BME280;46978;50.288;28.624;2022-12-11T01:56:30;97598.59;;;0.54;100.00
60337;BME280;46978;50.288;28.624;2022-12-11T01:57:33;97595.21;;;0.53;100.00
60337;BME280;46978;50.288;28.624;2022-12-11T01:58:41;97587.55;;;0.53;100.00
60337;BME280;46978;50.288;28.624;2022-12-11T01:59:44;97583.28;;;0.54;100.00
60337;BME280;46978;50.288;28.624;2022-12-11T02:00:47;97588.41;;;0.52;100.00
60337;BME280;46978;50.288;28.624;2022-12-11T02:01:54;97579.08;;;0.51;100.00
60337;BME280;46978;50.288;28.624;2022-12-11T02:02:57;97579.08;;;0.51;100.00
60337;BME280;46978;50.288;28.624;2022-12-11T02:03:58;97585.02;;;0.52;100.00
60337;BME280;46978;50.288;28.624;2022-12-11T02:05:02;97573.97;;;0.51;100.00
60337;BME280;46978;50.288;28.624;2022-12-11T02:06:05;97573.09;;;0.51;100.00
60337;BME280;46978;50.288;28.624;2022-12-11T02:07:07;97573.11;;;0.49;100.00
60337;BME280;46978;50.288;28.624;2022-12-11T02:08:10;97567.17;;;0.49;100.00
60337;BME280;46978;50.288;28.624;2022-12-11T02:09:15;97567.17;;;0.49;100.00
60337;BME280;46978;50.288;28.624;2022-12-11T02:10:17;97560.36;;;0.48;100.00
60337;BME280;46978;50.288;28.624;2022-12-11T02:11:21;97557.81;;;0.48;100.00
60337;BME280;46978;50.288;28.624;2022-12-11T02:12:35;97554.42;;;0.47;100.00
60337;BME280;46978;50.288;28.624;2022-12-11T02:13:51;97546.77;;;0.47;100.00
60337;BME280;46978;50.288;28.624;2022-12-11T02:15:11;97542.52;;;0.46;100.00
60337;BME280;46978;50.288;28.624;2022-12-11T02:16:18;97550.16;;;0.46;100.00
60337;BME280;46978;50.288;28.624;2022-12-11T02:17:26;97548.52;;;0.42;100.00
60337;BME280;46978;50.288;28.624;2022-12-11T02:18:41;97542.53;;;0.43;100.00
60337;BME280;46978;50.288;28.624;2022-12-11T02:21:09;97543.41;;;0.42;100.00
60337;BME280;46978;50.288;28.624;2022-12-11T02:22:17;97533.20;;;0.42;100.00
60337;BME280;46978;50.288;28.624;2022-12-11T02:24:52;97535.75;;;0.42;100.00
60337;BME280;46978;50.288;28.624;2022-12-11T02:26:33;97534.04;;;0.43;100.00
60337;BME280;46978;50.288;28.624;2022-12-11T02:27:39;97518.72;;;0.44;100.00
60337;BME280;46978;50.288;28.624;2022-12-11T02:30:08;97531.48;;;0.44;100.00
60337;BME280;46978;50.288;28.624;2022-12-11T02:32:37;97520.42;;;0.45;100.00
60337;BME280;46978;50.288;28.624;2022-12-11T02:33:51;97520.44;;;0.44;100.00
60337;BME280;46978;50.288;28.624;2022-12-11T02:36:08;97522.09;;;0.46;100.00
60337;BME280;46978;50.288;28.624;2022-12-11T02:37:15;97516.14;;;0.47;100.00
60337;BME280;46978;50.288;28.624;2022-12-11T02:38:20;97521.25;;;0.47;100.00
60337;BME280;46978;50.288;28.624;2022-12-11T02:39:22;97524.63;;;0.48;100.00
60337;BME280;46978;50.288;28.624;2022-12-11T02:40:29;97522.95;;;0.48;100.00
60337;BME280;46978;50.288;28.624;2022-12-11T02:41:31;97525.50;;;0.48;100.00
60337;BME280;46978;50.288;28.624;2022-12-11T02:42:36;97522.98;;;0.45;100.00
60337;BME280;46978;50.288;28.624;2022-12-11T02:43:40;97519.55;;;0.46;100.00
60337;BME280;46978;50.288;28.624;2022-12-11T02:44:43;97519.55;;;0.46;100.00
60337;BME280;46978;50.288;28.624;2022-12-11T02:45:47;97534.86;;;0.46;100.00
60337;BME280;46978;50.288;28.624;2022-12-11T02:46:52;97531.45;;;0.47;100.00
60337;BME280;46978;50.288;28.624;2022-12-11T02:47:56;97525.50;;;0.48;100.00
60337;BME280;46978;50.288;28.624;2022-12-11T02:49:02;97531.45;;;0.47;100.00
60337;BME280;46978;50.288;28.624;2022-12-11T02:50:08;97526.35;;;0.47;100.00
60337;BME280;46978;50.288;28.624;2022-12-11T02:51:12;97533.16;;;0.48;100.00
60337;BME280;46978;50.288;28.624;2022-12-11T02:52:18;97522.95;;;0.48;100.00
60337;BME280;46978;50.288;28.624;2022-12-11T02:53:24;97534.00;;;0.49;100.00
60337;BME280;46978;50.288;28.624;2022-12-11T02:54:29;97523.78;;;0.49;100.00
60337;BME280;46978;50.288;28.624;2022-12-11T02:55:32;97527.19;;;0.48;100.00
60337;BME280;46978;50.288;28.624;2022-12-11T02:56:42;97528.89;;;0.49;100.00
60337;BME280;46978;50.288;28.624;2022-12-11T02:58:50;97534.00;;;0.49;100.00
60337;BME280;46978;50.288;28.624;2022-12-11T02:59:52;97521.25;;;0.47;100.00
60337;BME280;46978;50.288;28.624;2022-12-11T03:00:54;97524.63;;;0.48;100.00
60337;BME280;46978;50.288;28.624;2022-12-11T03:01:56;97525.50;;;0.48;100.00
60337;BME280;46978;50.288;28.624;2022-12-11T03:02:58;97519.53;;;0.48;100.00
60337;BME280;46978;50.288;28.624;2022-12-11T03:04:00;97516.13;;;0.49;100.00
60337;BME280;46978;50.288;28.624;2022-12-11T03:05:02;97508.48;;;0.49;100.00
60337;BME280;46978;50.288;28.624;2022-12-11T03:06:05;97511.88;;;0.48;100.00
60337;BME280;46978;50.288;28.624;2022-12-11T03:07:09;97504.22;;;0.48;100.00
60337;BME280;46978;50.288;28.624;2022-12-11T03:08:12;97511.88;;;0.48;100.00
60337;BME280;46978;50.288;28.624;2022-12-11T03:09:14;97505.94;;;0.47;100.00
60337;BME280;46978;50.288;28.624;2022-12-11T03:10:17;97503.38;;;0.49;100.00
60337;BME280;46978;50.288;28.624;2022-12-11T03:11:20;97511.04;;;0.47;100.00
60337;BME280;46978;50.288;28.624;2022-12-11T03:12:33;97498.28;;;0.47;100.00
60337;BME280;46978;50.288;28.624;2022-12-11T03:13:37;97501.67;;;0.48;100.00
60337;BME280;46978;50.288;28.624;2022-12-11T03:14:41;97490.61;;;0.49;100.00
60337;BME280;46978;50.288;28.624;2022-12-11T03:16:08;97494.00;;;0.49;100.00
60337;BME280;46978;50.288;28.624;2022-12-11T03:17:18;97497.44;;;0.48;100.00
60337;BME280;46978;50.288;28.624;2022-12-11T03:21:07;97498.28;;;0.47;100.00
60337;BME280;46978;50.288;28.624;2022-12-11T03:22:21;97488.08;;;0.47;100.00
60337;BME280;46978;50.288;28.624;2022-12-11T03:25:03;97490.62;;;0.47;100.00
60337;BME280;46978;50.288;28.624;2022-12-11T03:26:11;97498.28;;;0.47;100.00
60337;BME280;46978;50.288;28.624;2022-12-11T03:27:22;97498.30;;;0.46;100.00
60337;BME280;46978;50.288;28.624;2022-12-11T03:28:35;97496.58;;;0.46;100.00
60337;BME280;46978;50.288;28.624;2022-12-11T03:29:39;97495.73;;;0.47;100.00
60337;BME280;46978;50.288;28.624;2022-12-11T03:30:42;97504.22;;;0.48;100.00
60337;BME280;46978;50.288;28.624;2022-12-11T03:33:10;97503.38;;;0.49;100.00
60337;BME280;46978;50.288;28.624;2022-12-11T03:34:21;97502.53;;;0.48;100.00
60337;BME280;46978;50.288;28.624;2022-12-11T03:35:41;97504.22;;;0.48;100.00
60337;BME280;46978;50.288;28.624;2022-12-11T03:36:46;97499.12;;;0.48;100.00
60337;BME280;46978;50.288;28.624;2022-12-11T03:37:50;97499.98;;;0.48;100.00
60337;BME280;46978;50.288;28.624;2022-12-11T03:39:02;97498.28;;;0.47;100.00
60337;BME280;46978;50.288;28.624;2022-12-11T03:40:09;97490.61;;;0.49;100.00
60337;BME280;46978;50.288;28.624;2022-12-11T03:41:11;97492.33;;;0.48;100.00
60337;BME280;46978;50.288;28.624;2022-12-11T03:42:15;97495.72;;;0.49;100.00
60337;BME280;46978;50.288;28.624;2022-12-11T03:43:19;97492.33;;;0.48;100.00
60337;BME280;46978;50.288;28.624;2022-12-11T03:44:23;97488.91;;;0.48;100.00
60337;BME280;46978;50.288;28.624;2022-12-11T03:45:26;97488.06;;;0.49;100.00
60337;BME280;46978;50.288;28.624;2022-12-11T03:46:33;97481.25;;;0.48;100.00
60337;BME280;46978;50.288;28.624;2022-12-11T03:47:36;97476.16;;;0.48;100.00
60337;BME280;46978;50.288;28.624;2022-12-11T03:48:41;97474.47;;;0.48;100.00
60337;BME280;46978;50.288;28.624;2022-12-11T03:49:44;97467.66;;;0.47;100.00
60337;BME280;46978;50.288;28.624;2022-12-11T03:50:49;97467.66;;;0.47;100.00
60337;BME280;46978;50.288;28.624;2022-12-11T03:51:53;97465.11;;;0.47;100.00
60337;BME280;46978;50.288;28.624;2022-12-11T03:52:57;97456.63;;;0.47;100.00
60337;BME280;46978;50.288;28.624;2022-12-11T03:54:01;97458.31;;;0.45;100.00
60337;BME280;46978;50.288;28.624;2022-12-11T03:55:05;97455.77;;;0.45;100.00
60337;BME280;46978;50.288;28.624;2022-12-11T03:56:11;97463.44;;;0.43;100.00
60337;BME280;46978;50.288;28.624;2022-12-11T03:57:17;97463.44;;;0.43;100.00
60337;BME280;46978;50.288;28.624;2022-12-11T03:58:19;97457.49;;;0.43;100.00
60337;BME280;46978;50.288;28.624;2022-12-11T03:59:21;97462.59;;;0.43;100.00
60337;BME280;46978;50.288;28.624;2022-12-11T04:00:23;97462.59;;;0.43;100.00
60337;BME280;46978;50.288;28.624;2022-12-11T04:01:26;97460.05;;;0.43;100.00
60337;BME280;46978;50.288;28.624;2022-12-11T04:02:27;97456.64;;;0.44;100.00
60337;BME280;46978;50.288;28.624;2022-12-11T04:03:29;97456.64;;;0.44;100.00
60337;BME280;46978;50.288;28.624;2022-12-11T04:04:31;97458.33;;;0.43;100.00
60337;BME280;46978;50.288;28.624;2022-12-11T04:05:32;97448.13;;;0.43;100.00
60337;BME280;46978;50.288;28.624;2022-12-11T04:06:34;97449.84;;;0.43;100.00
60337;BME280;46978;50.288;28.624;2022-12-11T04:07:36;97454.93;;;0.44;100.00
60337;BME280;46978;50.288;28.624;2022-12-11T04:08:38;97454.93;;;0.44;100.00
60337;BME280;46978;50.288;28.624;2022-12-11T04:09:39;97446.44;;;0.44;100.00
60337;BME280;46978;50.288;28.624;2022-12-11T04:10:41;97435.36;;;0.43;100.00
60337;BME280;46978;50.288;28.624;2022-12-11T04:11:43;97428.58;;;0.44;100.00
60337;BME280;46978;50.288;28.624;2022-12-11T04:12:45;97428.58;;;0.44;100.00
60337;BME280;46978;50.288;28.624;2022-12-11T04:13:47;97421.76;;;0.44;100.00
60337;BME280;46978;50.288;28.624;2022-12-11T04:14:49;97428.58;;;0.44;100.00
60337;BME280;46978;50.288;28.624;2022-12-11T04:15:50;97412.41;;;0.43;100.00
60337;BME280;46978;50.288;28.624;2022-12-11T04:16:52;97412.39;;;0.45;100.00
60337;BME280;46978;50.288;28.624;2022-12-11T04:17:54;97405.59;;;0.45;100.00
60337;BME280;46978;50.288;28.624;2022-12-11T04:18:56;97401.33;;;0.46;100.00
60337;BME280;46978;50.288;28.624;2022-12-11T04:19:58;97397.06;;;0.46;100.00
60337;BME280;46978;50.288;28.624;2022-12-11T04:21:00;97391.96;;;0.46;100.00
60337;BME280;46978;50.288;28.624;2022-12-11T04:22:02;97383.45;;;0.47;100.00
60337;BME280;46978;50.288;28.624;2022-12-11T04:23:10;97388.56;;;0.47;100.00
60337;BME280;46978;50.288;28.624;2022-12-11T04:24:12;97374.97;;;0.47;100.00
60337;BME280;46978;50.288;28.624;2022-12-11T04:25:13;97384.30;;;0.46;100.00
60337;BME280;46978;50.288;28.624;2022-12-11T04:26:18;97380.06;;;0.47;100.00
60337;BME280;46978;50.288;28.624;2022-12-11T04:27:20;97384.29;;;0.48;100.00
60337;BME280;46978;50.288;28.624;2022-12-11T04:28:22;97384.29;;;0.48;100.00
60337;BME280;46978;50.288;28.624;2022-12-11T04:29:23;97375.78;;;0.49;100.00
60337;BME280;46978;50.288;28.624;2022-12-11T04:30:25;97374.95;;;0.48;100.00
60337;BME280;46978;50.288;28.624;2022-12-11T04:31:27;97373.23;;;0.49;100.00
60337;BME280;46978;50.288;28.624;2022-12-11T04:32:29;97368.97;;;0.49;100.00
60337;BME280;46978;50.288;28.624;2022-12-11T04:33:31;97368.97;;;0.49;100.00
60337;BME280;46978;50.288;28.624;2022-12-11T04:34:32;97374.06;;;0.49;100.00
60337;BME280;46978;50.288;28.624;2022-12-11T04:35:35;97369.83;;;0.50;100.00
60337;BME280;46978;50.288;28.624;2022-12-11T04:36:37;97374.92;;;0.51;100.00
60337;BME280;46978;50.288;28.624;2022-12-11T04:37:39;97380.01;;;0.53;100.00
60337;BME280;46978;50.288;28.624;2022-12-11T04:38:40;97376.59;;;0.52;100.00
60337;BME280;46978;50.288;28.624;2022-12-11T04:39:42;97374.91;;;0.53;100.00
60337;BME280;46978;50.288;28.624;2022-12-11T04:40:44;97368.92;;;0.54;100.00
60337;BME280;46978;50.288;28.624;2022-12-11T04:41:45;97378.29;;;0.53;100.00
60337;BME280;46978;50.288;28.624;2022-12-11T04:42:47;97379.99;;;0.55;100.00
60337;BME280;46978;50.288;28.624;2022-12-11T04:43:49;97379.99;;;0.55;100.00
60337;BME280;46978;50.288;28.624;2022-12-11T04:44:50;97382.53;;;0.56;100.00
60337;BME280;46978;50.288;28.624;2022-12-11T04:46:04;97382.53;;;0.56;100.00
60337;BME280;46978;50.288;28.624;2022-12-11T04:47:06;97382.52;;;0.58;100.00
60337;BME280;46978;50.288;28.624;2022-12-11T04:48:08;97377.39;;;0.59;100.00
60337;BME280;46978;50.288;28.624;2022-12-11T04:49:09;97377.39;;;0.59;100.00
60337;BME280;46978;50.288;28.624;2022-12-11T04:50:13;97367.17;;;0.61;100.00
60337;BME280;46978;50.288;28.624;2022-12-11T04:51:16;97367.17;;;0.61;100.00
60337;BME280;46978;50.288;28.624;2022-12-11T04:52:18;97367.17;;;0.61;100.00
60337;BME280;46978;50.288;28.624;2022-12-11T04:53:20;97373.94;;;0.62;100.00
60337;BME280;46978;50.288;28.624;2022-12-11T04:54:22;97360.34;;;0.61;100.00
60337;BME280;46978;50.288;28.624;2022-12-11T04:55:23;97365.45;;;0.61;100.00
60337;BME280;46978;50.288;28.624;2022-12-11T04:56:25;97370.54;;;0.63;100.00
60337;BME280;46978;50.288;28.624;2022-12-11T04:57:27;97373.09;;;0.63;100.00
60337;BME280;46978;50.288;28.624;2022-12-11T04:58:28;97370.54;;;0.63;100.00
60337;BME280;46978;50.288;28.624;2022-12-11T04:59:32;97377.34;;;0.64;100.00
60337;BME280;46978;50.288;28.624;2022-12-11T05:00:34;97379.02;;;0.65;100.00
60337;BME280;46978;50.288;28.624;2022-12-11T05:01:36;97370.51;;;0.66;100.00
60337;BME280;46978;50.288;28.624;2022-12-11T05:02:39;97371.34;;;0.66;100.00
60337;BME280;46978;50.288;28.624;2022-12-11T05:03:42;97372.21;;;0.67;100.00
60337;BME280;46978;50.288;28.624;2022-12-11T05:04:43;97374.75;;;0.68;100.00
60337;BME280;46978;50.288;28.624;2022-12-11T05:05:50;97371.31;;;0.69;100.00
60337;BME280;46978;50.288;28.624;2022-12-11T05:06:52;97367.07;;;0.70;100.00
60337;BME280;46978;50.288;28.624;2022-12-11T05:07:54;97364.50;;;0.71;100.00
60337;BME280;46978;50.288;28.624;2022-12-11T05:08:55;97355.95;;;0.73;100.00
60337;BME280;46978;50.288;28.624;2022-12-11T05:09:57;97360.23;;;0.72;100.00
60337;BME280;46978;50.288;28.624;2022-12-11T05:11:01;97362.78;;;0.72;100.00
60337;BME280;46978;50.288;28.624;2022-12-11T05:12:03;97361.08;;;0.71;100.00
60337;BME280;46978;50.288;28.624;2022-12-11T05:13:05;97361.95;;;0.71;100.00
60337;BME280;46978;50.288;28.624;2022-12-11T05:14:07;97359.38;;;0.73;100.00
60337;BME280;46978;50.288;28.624;2022-12-11T05:15:09;97357.66;;;0.74;100.00
60337;BME280;46978;50.288;28.624;2022-12-11T05:16:13;97355.94;;;0.74;100.00
60337;BME280;46978;50.288;28.624;2022-12-11T05:17:15;97352.53;;;0.75;100.00
60337;BME280;46978;50.288;28.624;2022-12-11T05:18:17;97347.43;;;0.75;100.00
60337;BME280;46978;50.288;28.624;2022-12-11T05:19:19;97343.16;;;0.76;100.00
60337;BME280;46978;50.288;28.624;2022-12-11T05:20:20;97342.33;;;0.75;100.00
60337;BME280;46978;50.288;28.624;2022-12-11T05:21:22;97335.50;;;0.76;100.00
60337;BME280;46978;50.288;28.624;2022-12-11T05:22:24;97340.59;;;0.77;100.00
60337;BME280;46978;50.288;28.624;2022-12-11T05:23:26;97330.38;;;0.77;100.00
60337;BME280;46978;50.288;28.624;2022-12-11T05:24:28;97326.99;;;0.77;100.00
60337;BME280;46978;50.288;28.624;2022-12-11T05:25:30;97324.42;;;0.78;100.00
60337;BME280;46978;50.288;28.624;2022-12-11T05:26:32;97320.15;;;0.79;100.00
60337;BME280;46978;50.288;28.624;2022-12-11T05:27:33;97321.87;;;0.78;100.00
60337;BME280;46978;50.288;28.624;2022-12-11T05:28:37;97324.42;;;0.78;100.00
60337;BME280;46978;50.288;28.624;2022-12-11T05:29:39;97317.59;;;0.79;100.00
60337;BME280;46978;50.288;28.624;2022-12-11T05:30:41;97323.56;;;0.79;100.00
60337;BME280;46978;50.288;28.624;2022-12-11T05:31:43;97316.74;;;0.80;100.00
60337;BME280;46978;50.288;28.624;2022-12-11T05:32:45;97316.74;;;0.80;100.00
60337;BME280;46978;50.288;28.624;2022-12-11T05:33:48;97324.38;;;0.81;100.00
60337;BME280;46978;50.288;28.624;2022-12-11T05:34:50;97320.11;;;0.82;100.00
60337;BME280;46978;50.288;28.624;2022-12-11T05:35:52;97317.56;;;0.82;100.00
60337;BME280;46978;50.288;28.624;2022-12-11T05:36:54;97317.54;;;0.83;100.00
60337;BME280;46978;50.288;28.624;2022-12-11T05:37:56;97321.80;;;0.84;100.00
60337;BME280;46978;50.288;28.624;2022-12-11T05:38:59;97318.41;;;0.84;100.00
60337;BME280;46978;50.288;28.624;2022-12-11T05:40:02;97318.39;;;0.85;100.00
60337;BME280;46978;50.288;28.624;2022-12-11T05:41:05;97318.39;;;0.85;100.00
60337;BME280;46978;50.288;28.624;2022-12-11T05:42:07;97311.55;;;0.87;100.00
60337;BME280;46978;50.288;28.624;2022-12-11T05:43:09;97317.47;;;0.89;100.00
60337;BME280;46978;50.288;28.624;2022-12-11T05:44:12;97314.08;;;0.89;100.00
60337;BME280;46978;50.288;28.624;2022-12-11T05:45:14;97308.95;;;0.91;100.00
60337;BME280;46978;50.288;28.624;2022-12-11T05:46:18;97314.89;;;0.91;100.00
60337;BME280;46978;50.288;28.624;2022-12-11T05:47:20;97315.76;;;0.92;100.00
60337;BME280;46978;50.288;28.624;2022-12-11T05:48:22;97314.03;;;0.92;100.00